sensor_id;sensor_type;location;lat;lon;timestamp;P1;durP1;ratioP1;P2;durP2;ratioP2
57828;SDS011;43657;52.698;6.314;2023-05-29T00:02:21;20.98;;;5.30;;
57828;SDS011;43657;52.698;6.314;2023-05-29T00:04:47;20.10;;;5.07;;
57828;SDS011;43657;52.698;6.314;2023-05-29T00:07:13;19.58;;;5.18;;
57828;SDS011;43657;52.698;6.314;2023-05-29T00:09:39;22.77;;;5.82;;
57828;SDS011;43657;52.698;6.314;2023-05-29T00:12:10;20.10;;;5.38;;
57828;SDS011;43657;52.698;6.314;2023-05-29T00:14:36;14.05;;;4.75;;
57828;SDS011;43657;52.698;6.314;2023-05-29T00:17:02;18.75;;;5.13;;
57828;SDS011;43657;52.698;6.314;2023-05-29T00:19:31;18.88;;;5.40;;
57828;SDS011;43657;52.698;6.314;2023-05-29T00:21:57;19.27;;;5.55;;
57828;SDS011;43657;52.698;6.314;2023-05-29T00:24:22;19.95;;;5.53;;
57828;SDS011;43657;52.698;6.314;2023-05-29T00:26:48;17.70;;;5.07;;
57828;SDS011;43657;52.698;6.314;2023-05-29T00:29:14;19.17;;;5.47;;
57828;SDS011;43657;52.698;6.314;2023-05-29T00:31:40;21.00;;;5.47;;
57828;SDS011;43657;52.698;6.314;2023-05-29T00:34:06;16.23;;;5.05;;
57828;SDS011;43657;52.698;6.314;2023-05-29T00:36:31;17.00;;;5.60;;
57828;SDS011;43657;52.698;6.314;2023-05-29T00:39:00;16.90;;;5.53;;
57828;SDS011;43657;52.698;6.314;2023-05-29T00:41:26;17.10;;;5.80;;
57828;SDS011;43657;52.698;6.314;2023-05-29T00:43:52;18.00;;;5.20;;
57828;SDS011;43657;52.698;6.314;2023-05-29T00:46:17;20.02;;;5.53;;
57828;SDS011;43657;52.698;6.314;2023-05-29T00:48:46;18.92;;;5.65;;
57828;SDS011;43657;52.698;6.314;2023-05-29T00:51:14;20.33;;;5.05;;
57828;SDS011;43657;52.698;6.314;2023-05-29T00:53:40;21.38;;;6.20;;
57828;SDS011;43657;52.698;6.314;2023-05-29T00:56:08;19.77;;;5.60;;
57828;SDS011;43657;52.698;6.314;2023-05-29T00:58:35;17.83;;;5.22;;
57828;SDS011;43657;52.698;6.314;2023-05-29T01:01:01;22.08;;;5.38;;
57828;SDS011;43657;52.698;6.314;2023-05-29T01:03:28;22.95;;;5.65;;
57828;SDS011;43657;52.698;6.314;2023-05-29T01:05:54;17.13;;;5.75;;
57828;SDS011;43657;52.698;6.314;2023-05-29T01:08:20;16.10;;;5.70;;
57828;SDS011;43657;52.698;6.314;2023-05-29T01:10:46;19.88;;;5.60;;
57828;SDS011;43657;52.698;6.314;2023-05-29T01:13:19;17.98;;;5.80;;
57828;SDS011;43657;52.698;6.314;2023-05-29T01:15:58;21.65;;;6.20;;
57828;SDS011;43657;52.698;6.314;2023-05-29T01:21:29;21.95;;;6.20;;
57828;SDS011;43657;52.698;6.314;2023-05-29T01:24:24;22.30;;;5.65;;
57828;SDS011;43657;52.698;6.314;2023-05-29T01:27:05;19.27;;;5.97;;
57828;SDS011;43657;52.698;6.314;2023-05-29T01:32:02;16.00;;;5.65;;
57828;SDS011;43657;52.698;6.314;2023-05-29T01:34:30;19.40;;;6.10;;
57828;SDS011;43657;52.698;6.314;2023-05-29T01:36:56;19.55;;;5.72;;
57828;SDS011;43657;52.698;6.314;2023-05-29T01:39:21;23.02;;;5.65;;
57828;SDS011;43657;52.698;6.314;2023-05-29T01:41:49;20.63;;;5.80;;
57828;SDS011;43657;52.698;6.314;2023-05-29T01:44:15;22.65;;;5.60;;
57828;SDS011;43657;52.698;6.314;2023-05-29T01:46:43;21.23;;;5.50;;
57828;SDS011;43657;52.698;6.314;2023-05-29T01:49:10;21.20;;;5.93;;
57828;SDS011;43657;52.698;6.314;2023-05-29T01:51:40;20.02;;;5.38;;
57828;SDS011;43657;52.698;6.314;2023-05-29T01:54:06;19.48;;;5.15;;
57828;SDS011;43657;52.698;6.314;2023-05-29T01:56:32;21.00;;;6.28;;
57828;SDS011;43657;52.698;6.314;2023-05-29T01:58:58;18.13;;;5.85;;
57828;SDS011;43657;52.698;6.314;2023-05-29T02:01:27;20.73;;;5.38;;
57828;SDS011;43657;52.698;6.314;2023-05-29T02:03:53;16.30;;;5.00;;
57828;SDS011;43657;52.698;6.314;2023-05-29T02:06:21;18.33;;;5.63;;
57828;SDS011;43657;52.698;6.314;2023-05-29T02:08:47;17.52;;;4.90;;
57828;SDS011;43657;52.698;6.314;2023-05-29T02:11:13;15.68;;;5.47;;
57828;SDS011;43657;52.698;6.314;2023-05-29T02:13:39;18.00;;;5.35;;
57828;SDS011;43657;52.698;6.314;2023-05-29T02:16:07;20.35;;;5.55;;
57828;SDS011;43657;52.698;6.314;2023-05-29T02:18:35;16.50;;;5.60;;
57828;SDS011;43657;52.698;6.314;2023-05-29T02:21:01;17.02;;;5.00;;
57828;SDS011;43657;52.698;6.314;2023-05-29T02:23:29;17.00;;;5.07;;
57828;SDS011;43657;52.698;6.314;2023-05-29T02:25:55;18.70;;;5.45;;
57828;SDS011;43657;52.698;6.314;2023-05-29T02:28:21;18.02;;;5.30;;
57828;SDS011;43657;52.698;6.314;2023-05-29T02:30:47;22.27;;;5.25;;
57828;SDS011;43657;52.698;6.314;2023-05-29T02:33:12;14.52;;;4.97;;
57828;SDS011;43657;52.698;6.314;2023-05-29T02:35:38;15.52;;;5.03;;
57828;SDS011;43657;52.698;6.314;2023-05-29T02:38:06;22.10;;;6.57;;
57828;SDS011;43657;52.698;6.314;2023-05-29T02:40:32;20.10;;;5.82;;
57828;SDS011;43657;52.698;6.314;2023-05-29T02:42:57;25.10;;;5.85;;
57828;SDS011;43657;52.698;6.314;2023-05-29T02:45:23;18.13;;;4.88;;
57828;SDS011;43657;52.698;6.314;2023-05-29T02:47:49;19.55;;;5.28;;
57828;SDS011;43657;52.698;6.314;2023-05-29T02:50:15;17.65;;;5.53;;
57828;SDS011;43657;52.698;6.314;2023-05-29T02:52:41;17.40;;;5.07;;
57828;SDS011;43657;52.698;6.314;2023-05-29T02:55:14;20.08;;;5.35;;
57828;SDS011;43657;52.698;6.314;2023-05-29T02:57:43;21.77;;;6.80;;
57828;SDS011;43657;52.698;6.314;2023-05-29T03:00:09;15.90;;;5.10;;
57828;SDS011;43657;52.698;6.314;2023-05-29T03:02:36;18.27;;;5.18;;
57828;SDS011;43657;52.698;6.314;2023-05-29T03:05:02;21.23;;;6.05;;
57828;SDS011;43657;52.698;6.314;2023-05-29T03:07:28;22.42;;;5.55;;
57828;SDS011;43657;52.698;6.314;2023-05-29T03:09:56;18.85;;;6.13;;
57828;SDS011;43657;52.698;6.314;2023-05-29T03:12:22;21.77;;;6.15;;
57828;SDS011;43657;52.698;6.314;2023-05-29T03:14:48;21.05;;;5.57;;
57828;SDS011;43657;52.698;6.314;2023-05-29T03:17:14;19.77;;;6.00;;
57828;SDS011;43657;52.698;6.314;2023-05-29T03:19:39;15.40;;;5.28;;
57828;SDS011;43657;52.698;6.314;2023-05-29T03:22:05;17.48;;;4.97;;
57828;SDS011;43657;52.698;6.314;2023-05-29T03:24:31;20.83;;;6.68;;
57828;SDS011;43657;52.698;6.314;2023-05-29T03:26:59;21.20;;;6.20;;
57828;SDS011;43657;52.698;6.314;2023-05-29T03:29:25;17.02;;;5.28;;
57828;SDS011;43657;52.698;6.314;2023-05-29T03:31:51;16.85;;;5.05;;
57828;SDS011;43657;52.698;6.314;2023-05-29T03:34:17;19.58;;;5.25;;
57828;SDS011;43657;52.698;6.314;2023-05-29T03:36:43;17.73;;;5.88;;
57828;SDS011;43657;52.698;6.314;2023-05-29T03:39:11;17.88;;;5.57;;
57828;SDS011;43657;52.698;6.314;2023-05-29T03:41:37;21.38;;;6.28;;
57828;SDS011;43657;52.698;6.314;2023-05-29T03:44:03;27.63;;;7.80;;
57828;SDS011;43657;52.698;6.314;2023-05-29T03:46:29;24.95;;;6.85;;
57828;SDS011;43657;52.698;6.314;2023-05-29T03:48:56;23.35;;;6.85;;
57828;SDS011;43657;52.698;6.314;2023-05-29T03:51:24;20.25;;;6.38;;
57828;SDS011;43657;52.698;6.314;2023-05-29T03:53:50;18.38;;;5.80;;
57828;SDS011;43657;52.698;6.314;2023-05-29T03:56:16;21.23;;;5.90;;
57828;SDS011;43657;52.698;6.314;2023-05-29T03:58:44;19.88;;;6.68;;
57828;SDS011;43657;52.698;6.314;2023-05-29T04:01:10;19.83;;;6.20;;
57828;SDS011;43657;52.698;6.314;2023-05-29T04:03:36;20.20;;;6.32;;
57828;SDS011;43657;52.698;6.314;2023-05-29T04:06:02;19.17;;;6.15;;
57828;SDS011;43657;52.698;6.314;2023-05-29T04:08:28;21.58;;;6.90;;
57828;SDS011;43657;52.698;6.314;2023-05-29T04:10:54;17.90;;;6.13;;
57828;SDS011;43657;52.698;6.314;2023-05-29T04:13:22;17.65;;;5.95;;
57828;SDS011;43657;52.698;6.314;2023-05-29T04:15:47;25.23;;;7.60;;
57828;SDS011;43657;52.698;6.314;2023-05-29T04:18:17;20.30;;;7.10;;
57828;SDS011;43657;52.698;6.314;2023-05-29T04:20:43;20.95;;;7.25;;
57828;SDS011;43657;52.698;6.314;2023-05-29T04:23:12;25.52;;;8.18;;
57828;SDS011;43657;52.698;6.314;2023-05-29T04:25:38;25.10;;;8.20;;
57828;SDS011;43657;52.698;6.314;2023-05-29T04:28:04;19.23;;;6.78;;
57828;SDS011;43657;52.698;6.314;2023-05-29T04:30:30;25.70;;;7.05;;
57828;SDS011;43657;52.698;6.314;2023-05-29T04:32:58;22.58;;;7.20;;
57828;SDS011;43657;52.698;6.314;2023-05-29T04:35:24;18.83;;;6.38;;
57828;SDS011;43657;52.698;6.314;2023-05-29T04:37:50;19.63;;;6.45;;
57828;SDS011;43657;52.698;6.314;2023-05-29T04:40:19;22.08;;;7.47;;
57828;SDS011;43657;52.698;6.314;2023-05-29T04:42:45;18.15;;;6.90;;
57828;SDS011;43657;52.698;6.314;2023-05-29T04:45:11;15.25;;;5.55;;
57828;SDS011;43657;52.698;6.314;2023-05-29T04:47:37;19.63;;;5.88;;
57828;SDS011;43657;52.698;6.314;2023-05-29T04:50:09;18.17;;;5.75;;
57828;SDS011;43657;52.698;6.314;2023-05-29T04:52:36;16.70;;;5.45;;
57828;SDS011;43657;52.698;6.314;2023-05-29T04:55:02;19.80;;;6.13;;
57828;SDS011;43657;52.698;6.314;2023-05-29T04:57:29;15.00;;;5.07;;
57828;SDS011;43657;52.698;6.314;2023-05-29T04:59:55;13.35;;;4.28;;
57828;SDS011;43657;52.698;6.314;2023-05-29T05:02:21;16.98;;;4.70;;
57828;SDS011;43657;52.698;6.314;2023-05-29T05:04:47;14.98;;;4.18;;
57828;SDS011;43657;52.698;6.314;2023-05-29T05:07:13;13.50;;;4.70;;
57828;SDS011;43657;52.698;6.314;2023-05-29T05:09:41;17.45;;;4.50;;
57828;SDS011;43657;52.698;6.314;2023-05-29T05:12:10;14.50;;;4.35;;
57828;SDS011;43657;52.698;6.314;2023-05-29T05:14:36;14.63;;;4.82;;
57828;SDS011;43657;52.698;6.314;2023-05-29T05:17:02;12.63;;;4.22;;
57828;SDS011;43657;52.698;6.314;2023-05-29T05:19:28;16.15;;;4.55;;
57828;SDS011;43657;52.698;6.314;2023-05-29T05:21:54;14.90;;;4.50;;
57828;SDS011;43657;52.698;6.314;2023-05-29T05:24:19;15.55;;;4.15;;
57828;SDS011;43657;52.698;6.314;2023-05-29T05:26:45;15.48;;;4.38;;
57828;SDS011;43657;52.698;6.314;2023-05-29T05:29:11;13.02;;;3.90;;
57828;SDS011;43657;52.698;6.314;2023-05-29T05:31:37;16.65;;;4.50;;
57828;SDS011;43657;52.698;6.314;2023-05-29T05:34:09;13.25;;;3.60;;
57828;SDS011;43657;52.698;6.314;2023-05-29T05:36:34;15.43;;;3.78;;
57828;SDS011;43657;52.698;6.314;2023-05-29T05:39:01;14.48;;;4.32;;
57828;SDS011;43657;52.698;6.314;2023-05-29T05:41:27;12.75;;;3.47;;
57828;SDS011;43657;52.698;6.314;2023-05-29T05:46:26;15.20;;;4.13;;
57828;SDS011;43657;52.698;6.314;2023-05-29T05:48:52;14.55;;;3.85;;
57828;SDS011;43657;52.698;6.314;2023-05-29T05:51:22;14.32;;;3.80;;
57828;SDS011;43657;52.698;6.314;2023-05-29T05:53:48;13.02;;;4.00;;
57828;SDS011;43657;52.698;6.314;2023-05-29T05:56:14;16.02;;;3.92;;
57828;SDS011;43657;52.698;6.314;2023-05-29T05:58:40;15.70;;;4.00;;
57828;SDS011;43657;52.698;6.314;2023-05-29T06:01:07;14.07;;;3.85;;
57828;SDS011;43657;52.698;6.314;2023-05-29T06:03:35;14.90;;;3.97;;
57828;SDS011;43657;52.698;6.314;2023-05-29T06:06:02;13.55;;;4.07;;
57828;SDS011;43657;52.698;6.314;2023-05-29T06:08:29;15.93;;;4.43;;
57828;SDS011;43657;52.698;6.314;2023-05-29T06:10:55;15.30;;;4.25;;
57828;SDS011;43657;52.698;6.314;2023-05-29T06:13:21;13.45;;;3.95;;
57828;SDS011;43657;52.698;6.314;2023-05-29T06:15:47;15.63;;;4.47;;
57828;SDS011;43657;52.698;6.314;2023-05-29T06:18:12;16.13;;;4.30;;
57828;SDS011;43657;52.698;6.314;2023-05-29T06:20:38;15.18;;;4.00;;
57828;SDS011;43657;52.698;6.314;2023-05-29T06:23:04;14.00;;;4.07;;
57828;SDS011;43657;52.698;6.314;2023-05-29T06:25:30;14.48;;;4.00;;
57828;SDS011;43657;52.698;6.314;2023-05-29T06:27:59;15.88;;;3.88;;
57828;SDS011;43657;52.698;6.314;2023-05-29T06:30:33;14.00;;;3.72;;
57828;SDS011;43657;52.698;6.314;2023-05-29T06:33:02;12.10;;;3.45;;
57828;SDS011;43657;52.698;6.314;2023-05-29T06:35:41;12.27;;;3.95;;
57828;SDS011;43657;52.698;6.314;2023-05-29T06:38:10;14.85;;;4.22;;
57828;SDS011;43657;52.698;6.314;2023-05-29T06:40:36;13.88;;;4.20;;
57828;SDS011;43657;52.698;6.314;2023-05-29T06:43:01;14.57;;;4.30;;
57828;SDS011;43657;52.698;6.314;2023-05-29T06:45:27;12.48;;;3.70;;
57828;SDS011;43657;52.698;6.314;2023-05-29T06:48:00;14.90;;;4.40;;
57828;SDS011;43657;52.698;6.314;2023-05-29T06:50:26;15.93;;;3.83;;
57828;SDS011;43657;52.698;6.314;2023-05-29T06:52:52;16.15;;;3.72;;
57828;SDS011;43657;52.698;6.314;2023-05-29T06:55:17;16.35;;;4.53;;
57828;SDS011;43657;52.698;6.314;2023-05-29T06:57:44;13.95;;;3.55;;
57828;SDS011;43657;52.698;6.314;2023-05-29T07:00:10;14.27;;;4.13;;
57828;SDS011;43657;52.698;6.314;2023-05-29T07:02:36;15.18;;;4.10;;
57828;SDS011;43657;52.698;6.314;2023-05-29T07:05:02;14.10;;;3.78;;
57828;SDS011;43657;52.698;6.314;2023-05-29T07:07:28;12.85;;;3.63;;
57828;SDS011;43657;52.698;6.314;2023-05-29T07:09:56;11.32;;;3.60;;
57828;SDS011;43657;52.698;6.314;2023-05-29T07:12:28;14.07;;;4.20;;
57828;SDS011;43657;52.698;6.314;2023-05-29T07:15:00;14.10;;;4.13;;
57828;SDS011;43657;52.698;6.314;2023-05-29T07:17:26;11.40;;;3.55;;
57828;SDS011;43657;52.698;6.314;2023-05-29T07:19:52;13.48;;;4.00;;
57828;SDS011;43657;52.698;6.314;2023-05-29T07:22:19;12.68;;;3.80;;
57828;SDS011;43657;52.698;6.314;2023-05-29T07:24:45;15.18;;;4.03;;
57828;SDS011;43657;52.698;6.314;2023-05-29T07:27:16;15.63;;;4.25;;
57828;SDS011;43657;52.698;6.314;2023-05-29T07:29:42;14.70;;;4.20;;
57828;SDS011;43657;52.698;6.314;2023-05-29T07:32:12;13.73;;;4.30;;
57828;SDS011;43657;52.698;6.314;2023-05-29T07:34:38;15.15;;;3.88;;
57828;SDS011;43657;52.698;6.314;2023-05-29T07:37:04;14.77;;;3.90;;
57828;SDS011;43657;52.698;6.314;2023-05-29T07:39:35;13.20;;;4.13;;
57828;SDS011;43657;52.698;6.314;2023-05-29T07:42:01;13.73;;;4.03;;
57828;SDS011;43657;52.698;6.314;2023-05-29T07:44:27;12.00;;;3.83;;
57828;SDS011;43657;52.698;6.314;2023-05-29T07:46:53;17.00;;;4.57;;
57828;SDS011;43657;52.698;6.314;2023-05-29T07:49:19;14.55;;;4.40;;
57828;SDS011;43657;52.698;6.314;2023-05-29T07:51:45;14.75;;;4.20;;
57828;SDS011;43657;52.698;6.314;2023-05-29T07:54:11;14.13;;;4.75;;
57828;SDS011;43657;52.698;6.314;2023-05-29T07:56:37;15.32;;;4.25;;
57828;SDS011;43657;52.698;6.314;2023-05-29T07:59:03;12.50;;;4.10;;
57828;SDS011;43657;52.698;6.314;2023-05-29T08:01:29;12.95;;;4.07;;
57828;SDS011;43657;52.698;6.314;2023-05-29T08:03:55;17.20;;;5.32;;
57828;SDS011;43657;52.698;6.314;2023-05-29T08:06:21;16.13;;;4.30;;
57828;SDS011;43657;52.698;6.314;2023-05-29T08:08:46;12.23;;;4.00;;
57828;SDS011;43657;52.698;6.314;2023-05-29T08:11:12;12.60;;;3.97;;
57828;SDS011;43657;52.698;6.314;2023-05-29T08:13:38;15.60;;;4.28;;
57828;SDS011;43657;52.698;6.314;2023-05-29T08:16:04;13.32;;;4.60;;
57828;SDS011;43657;52.698;6.314;2023-05-29T08:18:30;13.52;;;4.13;;
57828;SDS011;43657;52.698;6.314;2023-05-29T08:20:57;12.13;;;4.18;;
57828;SDS011;43657;52.698;6.314;2023-05-29T08:23:23;13.48;;;3.92;;
57828;SDS011;43657;52.698;6.314;2023-05-29T08:25:50;11.93;;;3.72;;
57828;SDS011;43657;52.698;6.314;2023-05-29T08:28:15;12.82;;;3.88;;
57828;SDS011;43657;52.698;6.314;2023-05-29T08:30:41;11.40;;;4.40;;
57828;SDS011;43657;52.698;6.314;2023-05-29T08:33:07;13.10;;;3.80;;
57828;SDS011;43657;52.698;6.314;2023-05-29T08:35:32;12.38;;;4.10;;
57828;SDS011;43657;52.698;6.314;2023-05-29T08:37:58;12.98;;;4.10;;
57828;SDS011;43657;52.698;6.314;2023-05-29T08:40:24;12.07;;;3.83;;
57828;SDS011;43657;52.698;6.314;2023-05-29T08:42:57;12.00;;;3.95;;
57828;SDS011;43657;52.698;6.314;2023-05-29T08:45:27;13.50;;;3.60;;
57828;SDS011;43657;52.698;6.314;2023-05-29T08:47:54;10.15;;;4.20;;
57828;SDS011;43657;52.698;6.314;2023-05-29T08:50:23;12.30;;;4.25;;
57828;SDS011;43657;52.698;6.314;2023-05-29T08:52:48;13.73;;;4.30;;
57828;SDS011;43657;52.698;6.314;2023-05-29T08:55:15;12.73;;;4.05;;
57828;SDS011;43657;52.698;6.314;2023-05-29T08:57:41;11.95;;;4.07;;
57828;SDS011;43657;52.698;6.314;2023-05-29T09:00:13;12.10;;;3.83;;
57828;SDS011;43657;52.698;6.314;2023-05-29T09:02:43;11.38;;;3.80;;
57828;SDS011;43657;52.698;6.314;2023-05-29T09:05:09;12.88;;;4.03;;
57828;SDS011;43657;52.698;6.314;2023-05-29T09:07:38;13.43;;;4.10;;
57828;SDS011;43657;52.698;6.314;2023-05-29T09:10:10;11.32;;;4.18;;
57828;SDS011;43657;52.698;6.314;2023-05-29T09:12:36;13.33;;;3.93;;
57828;SDS011;43657;52.698;6.314;2023-05-29T09:15:02;13.68;;;4.32;;
57828;SDS011;43657;52.698;6.314;2023-05-29T09:17:31;13.07;;;3.88;;
57828;SDS011;43657;52.698;6.314;2023-05-29T09:19:58;12.90;;;4.35;;
57828;SDS011;43657;52.698;6.314;2023-05-29T09:22:23;13.38;;;4.18;;
57828;SDS011;43657;52.698;6.314;2023-05-29T09:24:49;14.93;;;4.45;;
57828;SDS011;43657;52.698;6.314;2023-05-29T09:27:16;15.95;;;4.65;;
57828;SDS011;43657;52.698;6.314;2023-05-29T09:29:43;14.65;;;4.30;;
57828;SDS011;43657;52.698;6.314;2023-05-29T09:32:15;14.45;;;4.88;;
57828;SDS011;43657;52.698;6.314;2023-05-29T09:34:42;15.68;;;5.15;;
57828;SDS011;43657;52.698;6.314;2023-05-29T09:37:08;11.60;;;4.03;;
57828;SDS011;43657;52.698;6.314;2023-05-29T09:42:08;16.98;;;5.18;;
57828;SDS011;43657;52.698;6.314;2023-05-29T09:44:34;14.07;;;4.57;;
57828;SDS011;43657;52.698;6.314;2023-05-29T09:47:00;17.05;;;4.70;;
57828;SDS011;43657;52.698;6.314;2023-05-29T09:49:26;13.35;;;4.40;;
57828;SDS011;43657;52.698;6.314;2023-05-29T09:51:56;11.88;;;4.10;;
57828;SDS011;43657;52.698;6.314;2023-05-29T09:54:26;11.73;;;3.88;;
57828;SDS011;43657;52.698;6.314;2023-05-29T09:56:56;12.30;;;4.35;;
57828;SDS011;43657;52.698;6.314;2023-05-29T09:59:23;14.57;;;4.40;;
57828;SDS011;43657;52.698;6.314;2023-05-29T10:01:49;10.57;;;3.75;;
57828;SDS011;43657;52.698;6.314;2023-05-29T10:04:32;12.23;;;4.28;;
57828;SDS011;43657;52.698;6.314;2023-05-29T10:07:00;13.15;;;3.67;;
57828;SDS011;43657;52.698;6.314;2023-05-29T10:09:33;14.30;;;4.38;;
57828;SDS011;43657;52.698;6.314;2023-05-29T10:12:03;12.55;;;4.00;;
57828;SDS011;43657;52.698;6.314;2023-05-29T10:14:32;15.52;;;5.30;;
57828;SDS011;43657;52.698;6.314;2023-05-29T10:17:01;13.82;;;4.30;;
57828;SDS011;43657;52.698;6.314;2023-05-29T10:19:31;13.02;;;4.03;;
57828;SDS011;43657;52.698;6.314;2023-05-29T10:21:57;11.45;;;3.83;;
57828;SDS011;43657;52.698;6.314;2023-05-29T10:24:26;11.43;;;4.32;;
57828;SDS011;43657;52.698;6.314;2023-05-29T10:26:53;13.43;;;4.82;;
57828;SDS011;43657;52.698;6.314;2023-05-29T10:37:28;12.38;;;4.40;;
57828;SDS011;43657;52.698;6.314;2023-05-29T10:40:15;13.02;;;3.95;;
57828;SDS011;43657;52.698;6.314;2023-05-29T10:42:51;11.15;;;4.05;;
57828;SDS011;43657;52.698;6.314;2023-05-29T10:47:54;13.38;;;3.88;;
57828;SDS011;43657;52.698;6.314;2023-05-29T10:53:09;12.40;;;4.10;;
57828;SDS011;43657;52.698;6.314;2023-05-29T10:55:39;10.43;;;3.40;;
57828;SDS011;43657;52.698;6.314;2023-05-29T10:58:06;13.60;;;4.95;;
57828;SDS011;43657;52.698;6.314;2023-05-29T11:00:32;11.07;;;3.83;;
57828;SDS011;43657;52.698;6.314;2023-05-29T11:03:02;11.63;;;3.80;;
57828;SDS011;43657;52.698;6.314;2023-05-29T11:05:28;12.73;;;3.65;;
57828;SDS011;43657;52.698;6.314;2023-05-29T11:07:58;12.55;;;4.40;;
57828;SDS011;43657;52.698;6.314;2023-05-29T11:10:41;13.55;;;4.20;;
57828;SDS011;43657;52.698;6.314;2023-05-29T11:13:08;11.93;;;4.10;;
57828;SDS011;43657;52.698;6.314;2023-05-29T11:15:33;14.90;;;4.20;;
57828;SDS011;43657;52.698;6.314;2023-05-29T11:18:07;12.52;;;4.55;;
57828;SDS011;43657;52.698;6.314;2023-05-29T11:20:36;10.63;;;4.10;;
57828;SDS011;43657;52.698;6.314;2023-05-29T11:23:16;11.60;;;3.65;;
57828;SDS011;43657;52.698;6.314;2023-05-29T11:25:43;10.30;;;3.80;;
57828;SDS011;43657;52.698;6.314;2023-05-29T11:28:11;12.23;;;4.15;;
57828;SDS011;43657;52.698;6.314;2023-05-29T11:30:41;12.50;;;4.10;;
57828;SDS011;43657;52.698;6.314;2023-05-29T11:33:16;12.02;;;4.00;;
57828;SDS011;43657;52.698;6.314;2023-05-29T11:35:49;11.85;;;3.53;;
57828;SDS011;43657;52.698;6.314;2023-05-29T11:38:20;9.93;;;3.67;;
57828;SDS011;43657;52.698;6.314;2023-05-29T11:40:45;10.70;;;4.10;;
57828;SDS011;43657;52.698;6.314;2023-05-29T11:43:12;11.80;;;3.85;;
57828;SDS011;43657;52.698;6.314;2023-05-29T11:45:38;11.18;;;3.85;;
57828;SDS011;43657;52.698;6.314;2023-05-29T11:48:03;12.50;;;3.78;;
57828;SDS011;43657;52.698;6.314;2023-05-29T11:50:30;11.07;;;3.83;;
57828;SDS011;43657;52.698;6.314;2023-05-29T11:52:57;12.80;;;4.75;;
57828;SDS011;43657;52.698;6.314;2023-05-29T11:55:24;12.52;;;4.55;;
57828;SDS011;43657;52.698;6.314;2023-05-29T11:57:51;11.43;;;3.42;;
57828;SDS011;43657;52.698;6.314;2023-05-29T12:00:24;13.13;;;4.05;;
57828;SDS011;43657;52.698;6.314;2023-05-29T12:02:50;13.05;;;3.80;;
57828;SDS011;43657;52.698;6.314;2023-05-29T12:05:17;13.05;;;4.03;;
57828;SDS011;43657;52.698;6.314;2023-05-29T12:07:54;14.00;;;3.75;;
57828;SDS011;43657;52.698;6.314;2023-05-29T12:10:23;10.98;;;3.63;;
57828;SDS011;43657;52.698;6.314;2023-05-29T12:12:53;10.50;;;3.85;;
57828;SDS011;43657;52.698;6.314;2023-05-29T12:15:20;10.55;;;3.72;;
57828;SDS011;43657;52.698;6.314;2023-05-29T12:17:47;10.30;;;3.83;;
57828;SDS011;43657;52.698;6.314;2023-05-29T12:20:14;11.82;;;4.32;;
57828;SDS011;43657;52.698;6.314;2023-05-29T12:22:42;13.60;;;4.00;;
57828;SDS011;43657;52.698;6.314;2023-05-29T12:25:09;10.68;;;3.60;;
57828;SDS011;43657;52.698;6.314;2023-05-29T12:27:39;11.18;;;3.95;;
57828;SDS011;43657;52.698;6.314;2023-05-29T12:30:07;14.88;;;4.18;;
57828;SDS011;43657;52.698;6.314;2023-05-29T12:32:39;13.03;;;4.17;;
57828;SDS011;43657;52.698;6.314;2023-05-29T12:37:41;13.82;;;3.88;;
57828;SDS011;43657;52.698;6.314;2023-05-29T12:45:06;15.82;;;4.03;;
57828;SDS011;43657;52.698;6.314;2023-05-29T12:47:33;12.57;;;4.05;;
57828;SDS011;43657;52.698;6.314;2023-05-29T12:49:59;12.75;;;3.83;;
57828;SDS011;43657;52.698;6.314;2023-05-29T12:52:29;13.55;;;3.72;;
57828;SDS011;43657;52.698;6.314;2023-05-29T12:54:54;10.77;;;3.70;;
57828;SDS011;43657;52.698;6.314;2023-05-29T12:57:20;12.98;;;3.83;;
57828;SDS011;43657;52.698;6.314;2023-05-29T12:59:47;12.48;;;3.78;;
57828;SDS011;43657;52.698;6.314;2023-05-29T13:02:12;12.27;;;3.40;;
57828;SDS011;43657;52.698;6.314;2023-05-29T13:04:38;15.52;;;4.53;;
57828;SDS011;43657;52.698;6.314;2023-05-29T13:07:04;12.25;;;4.22;;
57828;SDS011;43657;52.698;6.314;2023-05-29T13:09:30;12.40;;;4.18;;
57828;SDS011;43657;52.698;6.314;2023-05-29T13:11:56;10.27;;;3.63;;
57828;SDS011;43657;52.698;6.314;2023-05-29T13:14:22;14.00;;;6.18;;
57828;SDS011;43657;52.698;6.314;2023-05-29T13:16:47;13.48;;;4.32;;
57828;SDS011;43657;52.698;6.314;2023-05-29T13:19:13;12.18;;;3.90;;
57828;SDS011;43657;52.698;6.314;2023-05-29T13:21:38;9.80;;;3.45;;
57828;SDS011;43657;52.698;6.314;2023-05-29T13:24:05;12.40;;;4.30;;
57828;SDS011;43657;52.698;6.314;2023-05-29T13:26:31;12.48;;;3.58;;
57828;SDS011;43657;52.698;6.314;2023-05-29T13:28:57;13.13;;;3.75;;
57828;SDS011;43657;52.698;6.314;2023-05-29T13:31:22;13.18;;;3.58;;
57828;SDS011;43657;52.698;6.314;2023-05-29T13:33:48;12.20;;;3.92;;
57828;SDS011;43657;52.698;6.314;2023-05-29T13:36:14;11.77;;;3.78;;
57828;SDS011;43657;52.698;6.314;2023-05-29T13:38:39;12.00;;;3.97;;
57828;SDS011;43657;52.698;6.314;2023-05-29T13:41:05;13.80;;;3.90;;
57828;SDS011;43657;52.698;6.314;2023-05-29T13:43:31;11.07;;;3.78;;
57828;SDS011;43657;52.698;6.314;2023-05-29T13:45:56;9.23;;;3.28;;
57828;SDS011;43657;52.698;6.314;2023-05-29T13:48:22;11.25;;;4.10;;
57828;SDS011;43657;52.698;6.314;2023-05-29T13:50:48;9.00;;;3.05;;
57828;SDS011;43657;52.698;6.314;2023-05-29T13:53:13;12.35;;;5.38;;
57828;SDS011;43657;52.698;6.314;2023-05-29T13:55:39;12.75;;;5.43;;
57828;SDS011;43657;52.698;6.314;2023-05-29T13:58:05;9.43;;;3.25;;
57828;SDS011;43657;52.698;6.314;2023-05-29T14:00:30;10.40;;;4.32;;
57828;SDS011;43657;52.698;6.314;2023-05-29T14:02:56;10.40;;;4.15;;
57828;SDS011;43657;52.698;6.314;2023-05-29T14:05:21;11.10;;;3.70;;
57828;SDS011;43657;52.698;6.314;2023-05-29T14:07:47;9.00;;;3.17;;
57828;SDS011;43657;52.698;6.314;2023-05-29T14:10:12;11.52;;;4.07;;
57828;SDS011;43657;52.698;6.314;2023-05-29T14:12:38;10.63;;;3.15;;
57828;SDS011;43657;52.698;6.314;2023-05-29T14:15:04;11.02;;;3.20;;
57828;SDS011;43657;52.698;6.314;2023-05-29T14:17:31;15.93;;;4.47;;
57828;SDS011;43657;52.698;6.314;2023-05-29T14:19:56;11.75;;;3.45;;
57828;SDS011;43657;52.698;6.314;2023-05-29T14:22:22;13.25;;;3.55;;
57828;SDS011;43657;52.698;6.314;2023-05-29T14:24:47;13.02;;;4.00;;
57828;SDS011;43657;52.698;6.314;2023-05-29T14:27:13;11.95;;;3.30;;
57828;SDS011;43657;52.698;6.314;2023-05-29T14:29:38;10.88;;;3.40;;
57828;SDS011;43657;52.698;6.314;2023-05-29T14:32:04;11.38;;;3.42;;
57828;SDS011;43657;52.698;6.314;2023-05-29T14:34:30;12.13;;;3.30;;
57828;SDS011;43657;52.698;6.314;2023-05-29T14:36:55;13.55;;;3.35;;
57828;SDS011;43657;52.698;6.314;2023-05-29T14:39:21;9.63;;;3.30;;
57828;SDS011;43657;52.698;6.314;2023-05-29T14:41:46;10.05;;;3.08;;
57828;SDS011;43657;52.698;6.314;2023-05-29T14:44:13;10.27;;;2.95;;
57828;SDS011;43657;52.698;6.314;2023-05-29T14:46:39;9.15;;;2.90;;
57828;SDS011;43657;52.698;6.314;2023-05-29T14:49:05;9.48;;;2.60;;
57828;SDS011;43657;52.698;6.314;2023-05-29T14:51:31;9.23;;;3.28;;
57828;SDS011;43657;52.698;6.314;2023-05-29T14:53:56;7.72;;;2.47;;
57828;SDS011;43657;52.698;6.314;2023-05-29T14:56:22;23.67;;;3.72;;
57828;SDS011;43657;52.698;6.314;2023-05-29T14:58:47;8.32;;;2.90;;
57828;SDS011;43657;52.698;6.314;2023-05-29T15:01:13;7.15;;;2.60;;
57828;SDS011;43657;52.698;6.314;2023-05-29T15:03:42;10.25;;;2.97;;
57828;SDS011;43657;52.698;6.314;2023-05-29T15:06:09;9.23;;;2.72;;
57828;SDS011;43657;52.698;6.314;2023-05-29T15:08:36;8.38;;;2.97;;